sensor_id;sensor_type;location;lat;lon;timestamp;P1;durP1;ratioP1;P2;durP2;ratioP2
49223;SDS011;35050;51.316;5.994;2023-04-03T00:00:03;2.33;;;1.77;;
49223;SDS011;35050;51.316;5.994;2023-04-03T00:02:30;2.53;;;1.80;;
49223;SDS011;35050;51.316;5.994;2023-04-03T00:04:56;2.45;;;1.85;;
49223;SDS011;35050;51.316;5.994;2023-04-03T00:07:21;3.15;;;2.10;;
49223;SDS011;35050;51.316;5.994;2023-04-03T00:09:47;3.60;;;2.10;;
49223;SDS011;35050;51.316;5.994;2023-04-03T00:12:12;4.00;;;2.33;;
49223;SDS011;35050;51.316;5.994;2023-04-03T00:14:38;3.05;;;1.90;;
49223;SDS011;35050;51.316;5.994;2023-04-03T00:17:04;4.20;;;2.47;;
49223;SDS011;35050;51.316;5.994;2023-04-03T00:19:30;3.08;;;2.22;;
49223;SDS011;35050;51.316;5.994;2023-04-03T00:21:55;4.80;;;2.50;;
49223;SDS011;35050;51.316;5.994;2023-04-03T00:24:21;2.67;;;1.80;;
49223;SDS011;35050;51.316;5.994;2023-04-03T00:26:47;3.40;;;2.38;;
49223;SDS011;35050;51.316;5.994;2023-04-03T00:29:12;2.90;;;2.13;;
49223;SDS011;35050;51.316;5.994;2023-04-03T00:31:38;2.47;;;1.77;;
49223;SDS011;35050;51.316;5.994;2023-04-03T00:34:03;3.03;;;2.03;;
49223;SDS011;35050;51.316;5.994;2023-04-03T00:36:29;2.72;;;2.05;;
49223;SDS011;35050;51.316;5.994;2023-04-03T00:38:55;2.08;;;1.80;;
49223;SDS011;35050;51.316;5.994;2023-04-03T00:41:20;2.33;;;1.90;;
49223;SDS011;35050;51.316;5.994;2023-04-03T00:43:46;2.30;;;1.88;;
49223;SDS011;35050;51.316;5.994;2023-04-03T00:46:12;2.90;;;1.83;;
49223;SDS011;35050;51.316;5.994;2023-04-03T00:48:41;2.45;;;1.83;;
49223;SDS011;35050;51.316;5.994;2023-04-03T00:51:11;3.67;;;1.80;;
49223;SDS011;35050;51.316;5.994;2023-04-03T00:53:49;4.15;;;1.90;;
49223;SDS011;35050;51.316;5.994;2023-04-03T00:56:19;2.58;;;1.83;;
49223;SDS011;35050;51.316;5.994;2023-04-03T00:58:50;3.10;;;1.90;;
49223;SDS011;35050;51.316;5.994;2023-04-03T01:01:25;2.70;;;1.83;;
49223;SDS011;35050;51.316;5.994;2023-04-03T01:03:52;2.63;;;1.80;;
49223;SDS011;35050;51.316;5.994;2023-04-03T01:06:19;2.30;;;1.88;;
49223;SDS011;35050;51.316;5.994;2023-04-03T01:08:50;2.92;;;2.10;;
49223;SDS011;35050;51.316;5.994;2023-04-03T01:11:16;2.00;;;1.80;;
49223;SDS011;35050;51.316;5.994;2023-04-03T01:13:42;2.40;;;1.98;;
49223;SDS011;35050;51.316;5.994;2023-04-03T01:16:08;3.10;;;2.15;;
49223;SDS011;35050;51.316;5.994;2023-04-03T01:18:35;2.40;;;2.05;;
49223;SDS011;35050;51.316;5.994;2023-04-03T01:26:35;4.20;;;2.03;;
49223;SDS011;35050;51.316;5.994;2023-04-03T01:29:00;3.35;;;2.10;;
49223;SDS011;35050;51.316;5.994;2023-04-03T01:31:31;3.30;;;2.45;;
49223;SDS011;35050;51.316;5.994;2023-04-03T01:34:18;3.53;;;2.00;;
49223;SDS011;35050;51.316;5.994;2023-04-03T01:36:44;2.42;;;1.80;;
49223;SDS011;35050;51.316;5.994;2023-04-03T01:39:10;2.53;;;2.10;;
49223;SDS011;35050;51.316;5.994;2023-04-03T01:41:36;2.53;;;2.03;;
49223;SDS011;35050;51.316;5.994;2023-04-03T01:44:02;3.33;;;1.92;;
49223;SDS011;35050;51.316;5.994;2023-04-03T01:46:28;2.78;;;1.95;;
49223;SDS011;35050;51.316;5.994;2023-04-03T01:48:54;2.88;;;1.88;;
49223;SDS011;35050;51.316;5.994;2023-04-03T01:51:20;3.95;;;2.00;;
49223;SDS011;35050;51.316;5.994;2023-04-03T01:53:46;2.63;;;2.00;;
49223;SDS011;35050;51.316;5.994;2023-04-03T01:56:11;3.17;;;1.88;;
49223;SDS011;35050;51.316;5.994;2023-04-03T01:58:37;2.50;;;1.90;;
49223;SDS011;35050;51.316;5.994;2023-04-03T02:01:03;2.80;;;1.73;;
49223;SDS011;35050;51.316;5.994;2023-04-03T02:03:29;2.75;;;2.00;;
49223;SDS011;35050;51.316;5.994;2023-04-03T02:05:55;3.35;;;2.40;;
49223;SDS011;35050;51.316;5.994;2023-04-03T02:08:21;3.20;;;2.10;;
49223;SDS011;35050;51.316;5.994;2023-04-03T02:10:47;3.17;;;2.10;;
49223;SDS011;35050;51.316;5.994;2023-04-03T02:13:14;3.30;;;2.15;;
49223;SDS011;35050;51.316;5.994;2023-04-03T02:15:40;4.13;;;2.40;;
49223;SDS011;35050;51.316;5.994;2023-04-03T02:18:06;2.40;;;2.08;;
49223;SDS011;35050;51.316;5.994;2023-04-03T02:20:32;2.88;;;2.10;;
49223;SDS011;35050;51.316;5.994;2023-04-03T02:22:58;2.63;;;2.20;;
49223;SDS011;35050;51.316;5.994;2023-04-03T02:25:24;2.95;;;2.05;;
49223;SDS011;35050;51.316;5.994;2023-04-03T02:27:51;2.85;;;1.98;;
49223;SDS011;35050;51.316;5.994;2023-04-03T02:30:16;2.10;;;1.90;;
49223;SDS011;35050;51.316;5.994;2023-04-03T02:32:42;3.17;;;2.20;;
49223;SDS011;35050;51.316;5.994;2023-04-03T02:35:09;2.65;;;2.35;;
49223;SDS011;35050;51.316;5.994;2023-04-03T02:37:36;2.42;;;2.20;;
49223;SDS011;35050;51.316;5.994;2023-04-03T02:40:02;2.53;;;1.77;;
49223;SDS011;35050;51.316;5.994;2023-04-03T02:42:28;3.63;;;2.20;;
49223;SDS011;35050;51.316;5.994;2023-04-03T02:44:54;3.22;;;2.10;;
49223;SDS011;35050;51.316;5.994;2023-04-03T02:47:20;2.70;;;2.10;;
49223;SDS011;35050;51.316;5.994;2023-04-03T02:49:46;2.67;;;2.25;;
49223;SDS011;35050;51.316;5.994;2023-04-03T02:52:12;2.65;;;2.20;;
49223;SDS011;35050;51.316;5.994;2023-04-03T02:54:38;2.42;;;2.03;;
49223;SDS011;35050;51.316;5.994;2023-04-03T02:57:04;2.42;;;2.03;;
49223;SDS011;35050;51.316;5.994;2023-04-03T02:59:30;2.55;;;1.98;;
49223;SDS011;35050;51.316;5.994;2023-04-03T03:01:56;3.75;;;2.35;;
49223;SDS011;35050;51.316;5.994;2023-04-03T03:04:22;2.75;;;1.90;;
49223;SDS011;35050;51.316;5.994;2023-04-03T03:06:47;2.60;;;2.00;;
49223;SDS011;35050;51.316;5.994;2023-04-03T03:09:13;3.72;;;1.95;;
49223;SDS011;35050;51.316;5.994;2023-04-03T03:11:39;2.30;;;2.10;;
49223;SDS011;35050;51.316;5.994;2023-04-03T03:14:05;3.42;;;2.10;;
49223;SDS011;35050;51.316;5.994;2023-04-03T03:16:31;2.83;;;2.10;;
49223;SDS011;35050;51.316;5.994;2023-04-03T03:18:56;3.50;;;2.35;;
49223;SDS011;35050;51.316;5.994;2023-04-03T03:21:22;3.88;;;2.28;;
49223;SDS011;35050;51.316;5.994;2023-04-03T03:23:47;4.28;;;2.63;;
49223;SDS011;35050;51.316;5.994;2023-04-03T03:26:13;2.85;;;1.90;;
49223;SDS011;35050;51.316;5.994;2023-04-03T03:28:39;3.15;;;2.05;;
49223;SDS011;35050;51.316;5.994;2023-04-03T03:31:06;1.95;;;1.67;;
49223;SDS011;35050;51.316;5.994;2023-04-03T03:33:32;4.78;;;2.10;;
49223;SDS011;35050;51.316;5.994;2023-04-03T03:35:57;4.38;;;2.22;;
49223;SDS011;35050;51.316;5.994;2023-04-03T03:38:23;2.38;;;1.95;;
49223;SDS011;35050;51.316;5.994;2023-04-03T03:40:50;4.10;;;2.08;;
49223;SDS011;35050;51.316;5.994;2023-04-03T03:43:16;3.58;;;2.00;;
49223;SDS011;35050;51.316;5.994;2023-04-03T03:45:43;3.13;;;1.80;;
49223;SDS011;35050;51.316;5.994;2023-04-03T03:48:08;3.67;;;1.90;;
49223;SDS011;35050;51.316;5.994;2023-04-03T03:50:34;4.45;;;2.05;;
49223;SDS011;35050;51.316;5.994;2023-04-03T03:53:00;3.38;;;1.80;;
49223;SDS011;35050;51.316;5.994;2023-04-03T03:55:26;2.97;;;2.03;;
49223;SDS011;35050;51.316;5.994;2023-04-03T03:57:52;2.10;;;1.70;;
49223;SDS011;35050;51.316;5.994;2023-04-03T04:00:18;2.40;;;1.73;;
49223;SDS011;35050;51.316;5.994;2023-04-03T04:02:43;2.50;;;1.60;;
49223;SDS011;35050;51.316;5.994;2023-04-03T04:05:09;3.08;;;1.90;;
49223;SDS011;35050;51.316;5.994;2023-04-03T04:07:35;2.60;;;1.75;;
49223;SDS011;35050;51.316;5.994;2023-04-03T04:10:01;3.85;;;1.73;;
49223;SDS011;35050;51.316;5.994;2023-04-03T04:12:27;2.75;;;1.50;;
49223;SDS011;35050;51.316;5.994;2023-04-03T04:14:52;3.85;;;1.67;;
49223;SDS011;35050;51.316;5.994;2023-04-03T04:17:18;2.13;;;1.70;;
49223;SDS011;35050;51.316;5.994;2023-04-03T04:19:44;2.78;;;1.65;;
49223;SDS011;35050;51.316;5.994;2023-04-03T04:22:10;3.10;;;1.55;;
49223;SDS011;35050;51.316;5.994;2023-04-03T04:24:36;3.85;;;1.45;;
49223;SDS011;35050;51.316;5.994;2023-04-03T04:27:02;2.15;;;1.60;;
49223;SDS011;35050;51.316;5.994;2023-04-03T04:29:28;2.75;;;1.80;;
49223;SDS011;35050;51.316;5.994;2023-04-03T04:31:53;3.20;;;1.50;;
49223;SDS011;35050;51.316;5.994;2023-04-03T04:34:19;2.78;;;1.70;;
49223;SDS011;35050;51.316;5.994;2023-04-03T04:36:45;4.18;;;1.67;;
49223;SDS011;35050;51.316;5.994;2023-04-03T04:39:10;3.22;;;1.80;;
49223;SDS011;35050;51.316;5.994;2023-04-03T04:41:36;3.58;;;1.50;;
49223;SDS011;35050;51.316;5.994;2023-04-03T04:44:02;2.67;;;1.50;;
49223;SDS011;35050;51.316;5.994;2023-04-03T04:46:27;4.43;;;2.22;;
49223;SDS011;35050;51.316;5.994;2023-04-03T04:48:53;1.65;;;1.48;;
49223;SDS011;35050;51.316;5.994;2023-04-03T04:51:19;3.72;;;1.70;;
49223;SDS011;35050;51.316;5.994;2023-04-03T04:53:45;3.00;;;1.90;;
49223;SDS011;35050;51.316;5.994;2023-04-03T04:56:10;2.65;;;1.60;;
49223;SDS011;35050;51.316;5.994;2023-04-03T04:58:36;2.25;;;1.60;;
49223;SDS011;35050;51.316;5.994;2023-04-03T05:01:03;2.45;;;1.50;;
49223;SDS011;35050;51.316;5.994;2023-04-03T05:03:31;1.80;;;1.38;;
49223;SDS011;35050;51.316;5.994;2023-04-03T05:05:58;2.38;;;1.40;;
49223;SDS011;35050;51.316;5.994;2023-04-03T05:08:23;2.72;;;1.48;;
49223;SDS011;35050;51.316;5.994;2023-04-03T05:10:50;3.40;;;1.30;;
49223;SDS011;35050;51.316;5.994;2023-04-03T05:13:15;2.75;;;1.52;;
49223;SDS011;35050;51.316;5.994;2023-04-03T05:15:41;2.45;;;1.30;;
49223;SDS011;35050;51.316;5.994;2023-04-03T05:18:07;2.78;;;1.40;;
49223;SDS011;35050;51.316;5.994;2023-04-03T05:20:33;2.33;;;1.30;;
49223;SDS011;35050;51.316;5.994;2023-04-03T05:22:59;2.80;;;1.70;;
49223;SDS011;35050;51.316;5.994;2023-04-03T05:25:25;3.17;;;1.77;;
49223;SDS011;35050;51.316;5.994;2023-04-03T05:27:51;2.70;;;1.40;;
49223;SDS011;35050;51.316;5.994;2023-04-03T05:30:17;2.65;;;1.13;;
49223;SDS011;35050;51.316;5.994;2023-04-03T05:32:43;3.80;;;1.33;;
49223;SDS011;35050;51.316;5.994;2023-04-03T05:35:09;3.10;;;1.40;;
49223;SDS011;35050;51.316;5.994;2023-04-03T05:37:35;2.60;;;1.38;;
49223;SDS011;35050;51.316;5.994;2023-04-03T05:40:02;2.28;;;1.00;;
49223;SDS011;35050;51.316;5.994;2023-04-03T05:42:32;2.38;;;1.20;;
49223;SDS011;35050;51.316;5.994;2023-04-03T05:44:57;1.92;;;0.90;;
49223;SDS011;35050;51.316;5.994;2023-04-03T05:47:23;2.63;;;1.42;;
49223;SDS011;35050;51.316;5.994;2023-04-03T05:49:49;3.03;;;1.30;;
49223;SDS011;35050;51.316;5.994;2023-04-03T05:52:20;2.92;;;1.17;;
49223;SDS011;35050;51.316;5.994;2023-04-03T05:54:50;3.05;;;1.30;;
49223;SDS011;35050;51.316;5.994;2023-04-03T05:57:16;2.72;;;1.33;;
49223;SDS011;35050;51.316;5.994;2023-04-03T05:59:45;1.60;;;1.20;;
49223;SDS011;35050;51.316;5.994;2023-04-03T06:02:18;3.83;;;1.20;;
49223;SDS011;35050;51.316;5.994;2023-04-03T06:04:46;3.05;;;1.27;;
49223;SDS011;35050;51.316;5.994;2023-04-03T06:07:16;3.58;;;1.27;;
49223;SDS011;35050;51.316;5.994;2023-04-03T06:12:12;3.92;;;1.88;;
49223;SDS011;35050;51.316;5.994;2023-04-03T06:14:38;5.45;;;1.55;;
49223;SDS011;35050;51.316;5.994;2023-04-03T06:17:03;3.72;;;1.42;;
49223;SDS011;35050;51.316;5.994;2023-04-03T06:19:30;2.83;;;1.20;;
49223;SDS011;35050;51.316;5.994;2023-04-03T06:21:55;2.67;;;1.95;;
49223;SDS011;35050;51.316;5.994;2023-04-03T06:24:21;2.60;;;1.33;;
49223;SDS011;35050;51.316;5.994;2023-04-03T06:26:49;3.22;;;1.50;;
49223;SDS011;35050;51.316;5.994;2023-04-03T06:29:16;3.78;;;1.67;;
49223;SDS011;35050;51.316;5.994;2023-04-03T06:31:42;4.03;;;1.50;;
49223;SDS011;35050;51.316;5.994;2023-04-03T06:34:08;3.65;;;2.22;;
49223;SDS011;35050;51.316;5.994;2023-04-03T06:36:36;2.85;;;1.55;;
49223;SDS011;35050;51.316;5.994;2023-04-03T06:39:04;2.42;;;1.55;;
49223;SDS011;35050;51.316;5.994;2023-04-03T06:41:29;4.88;;;1.77;;
49223;SDS011;35050;51.316;5.994;2023-04-03T06:43:56;5.88;;;1.83;;
49223;SDS011;35050;51.316;5.994;2023-04-03T06:46:23;4.57;;;2.00;;
49223;SDS011;35050;51.316;5.994;2023-04-03T06:48:50;3.53;;;1.60;;
49223;SDS011;35050;51.316;5.994;2023-04-03T06:51:26;5.55;;;1.77;;
49223;SDS011;35050;51.316;5.994;2023-04-03T06:53:53;7.97;;;2.22;;
49223;SDS011;35050;51.316;5.994;2023-04-03T06:56:21;4.63;;;1.63;;
49223;SDS011;35050;51.316;5.994;2023-04-03T06:58:47;3.53;;;1.42;;
49223;SDS011;35050;51.316;5.994;2023-04-03T07:01:15;3.78;;;1.88;;
49223;SDS011;35050;51.316;5.994;2023-04-03T07:03:42;5.88;;;1.80;;
49223;SDS011;35050;51.316;5.994;2023-04-03T07:06:09;3.70;;;1.90;;
49223;SDS011;35050;51.316;5.994;2023-04-03T07:08:37;4.82;;;2.15;;
49223;SDS011;35050;51.316;5.994;2023-04-03T07:11:03;3.45;;;1.83;;
49223;SDS011;35050;51.316;5.994;2023-04-03T07:13:29;3.10;;;1.60;;
49223;SDS011;35050;51.316;5.994;2023-04-03T07:15:55;3.30;;;1.60;;
49223;SDS011;35050;51.316;5.994;2023-04-03T07:18:21;4.28;;;1.73;;
49223;SDS011;35050;51.316;5.994;2023-04-03T07:20:48;5.93;;;1.90;;
49223;SDS011;35050;51.316;5.994;2023-04-03T07:23:13;3.90;;;1.58;;
49223;SDS011;35050;51.316;5.994;2023-04-03T07:25:45;3.45;;;1.70;;
49223;SDS011;35050;51.316;5.994;2023-04-03T07:28:12;4.00;;;1.60;;
49223;SDS011;35050;51.316;5.994;2023-04-03T07:30:42;3.72;;;1.50;;
49223;SDS011;35050;51.316;5.994;2023-04-03T07:33:11;5.38;;;2.03;;
49223;SDS011;35050;51.316;5.994;2023-04-03T07:35:39;5.65;;;2.17;;
49223;SDS011;35050;51.316;5.994;2023-04-03T07:38:05;3.88;;;1.70;;
49223;SDS011;35050;51.316;5.994;2023-04-03T07:40:32;4.43;;;1.83;;
49223;SDS011;35050;51.316;5.994;2023-04-03T07:42:58;7.78;;;2.30;;
49223;SDS011;35050;51.316;5.994;2023-04-03T07:45:24;5.82;;;1.75;;
49223;SDS011;35050;51.316;5.994;2023-04-03T07:47:50;4.80;;;1.90;;
49223;SDS011;35050;51.316;5.994;2023-04-03T07:50:16;4.32;;;1.65;;
49223;SDS011;35050;51.316;5.994;2023-04-03T07:52:42;4.15;;;1.65;;
49223;SDS011;35050;51.316;5.994;2023-04-03T07:55:08;4.80;;;1.77;;
49223;SDS011;35050;51.316;5.994;2023-04-03T07:57:34;5.32;;;1.80;;
49223;SDS011;35050;51.316;5.994;2023-04-03T08:00:00;2.85;;;1.45;;
49223;SDS011;35050;51.316;5.994;2023-04-03T08:02:26;8.15;;;1.92;;
49223;SDS011;35050;51.316;5.994;2023-04-03T08:04:52;4.85;;;1.80;;
49223;SDS011;35050;51.316;5.994;2023-04-03T08:07:17;4.00;;;1.60;;
49223;SDS011;35050;51.316;5.994;2023-04-03T08:09:43;4.70;;;2.13;;
49223;SDS011;35050;51.316;5.994;2023-04-03T08:12:09;3.88;;;2.25;;
49223;SDS011;35050;51.316;5.994;2023-04-03T08:14:36;7.95;;;2.85;;
49223;SDS011;35050;51.316;5.994;2023-04-03T08:17:02;4.70;;;2.10;;
49223;SDS011;35050;51.316;5.994;2023-04-03T08:19:29;5.60;;;2.20;;
49223;SDS011;35050;51.316;5.994;2023-04-03T08:21:55;4.32;;;2.00;;
49223;SDS011;35050;51.316;5.994;2023-04-03T08:24:23;5.03;;;2.47;;
49223;SDS011;35050;51.316;5.994;2023-04-03T08:26:49;6.50;;;2.47;;
49223;SDS011;35050;51.316;5.994;2023-04-03T08:29:15;6.22;;;2.45;;
49223;SDS011;35050;51.316;5.994;2023-04-03T08:31:41;6.53;;;2.40;;
49223;SDS011;35050;51.316;5.994;2023-04-03T08:34:07;3.65;;;2.03;;
49223;SDS011;35050;51.316;5.994;2023-04-03T08:36:33;5.25;;;2.20;;
49223;SDS011;35050;51.316;5.994;2023-04-03T08:38:59;4.43;;;2.03;;
49223;SDS011;35050;51.316;5.994;2023-04-03T08:41:41;4.40;;;1.98;;
49223;SDS011;35050;51.316;5.994;2023-04-03T08:46:44;5.85;;;2.15;;
49223;SDS011;35050;51.316;5.994;2023-04-03T08:54:56;4.82;;;2.15;;
49223;SDS011;35050;51.316;5.994;2023-04-03T08:57:29;7.18;;;2.30;;
49223;SDS011;35050;51.316;5.994;2023-04-03T09:00:13;3.90;;;1.70;;
49223;SDS011;35050;51.316;5.994;2023-04-03T09:02:44;4.05;;;1.67;;
49223;SDS011;35050;51.316;5.994;2023-04-03T09:08:30;7.05;;;1.83;;
49223;SDS011;35050;51.316;5.994;2023-04-03T09:13:57;3.47;;;1.92;;
49223;SDS011;35050;51.316;5.994;2023-04-03T09:16:31;7.40;;;2.63;;
49223;SDS011;35050;51.316;5.994;2023-04-03T09:19:05;3.58;;;1.63;;
49223;SDS011;35050;51.316;5.994;2023-04-03T09:21:45;6.57;;;2.00;;
49223;SDS011;35050;51.316;5.994;2023-04-03T09:24:12;3.38;;;1.52;;
49223;SDS011;35050;51.316;5.994;2023-04-03T09:29:24;3.33;;;1.60;;
49223;SDS011;35050;51.316;5.994;2023-04-03T09:31:58;2.33;;;1.20;;
49223;SDS011;35050;51.316;5.994;2023-04-03T09:34:27;3.22;;;1.52;;
49223;SDS011;35050;51.316;5.994;2023-04-03T09:37:00;3.10;;;1.23;;
49223;SDS011;35050;51.316;5.994;2023-04-03T09:39:31;2.58;;;1.38;;
49223;SDS011;35050;51.316;5.994;2023-04-03T09:42:05;4.63;;;1.60;;
49223;SDS011;35050;51.316;5.994;2023-04-03T09:49:49;4.03;;;1.80;;
49223;SDS011;35050;51.316;5.994;2023-04-03T09:52:24;4.88;;;1.73;;
49223;SDS011;35050;51.316;5.994;2023-04-03T09:54:51;2.55;;;1.45;;
49223;SDS011;35050;51.316;5.994;2023-04-03T09:57:17;4.43;;;1.80;;
49223;SDS011;35050;51.316;5.994;2023-04-03T09:59:48;5.47;;;1.42;;
49223;SDS011;35050;51.316;5.994;2023-04-03T10:02:39;2.75;;;1.35;;
49223;SDS011;35050;51.316;5.994;2023-04-03T10:07:50;3.47;;;1.58;;
49223;SDS011;35050;51.316;5.994;2023-04-03T10:10:18;3.90;;;1.92;;
49223;SDS011;35050;51.316;5.994;2023-04-03T10:12:48;3.83;;;1.60;;
49223;SDS011;35050;51.316;5.994;2023-04-03T10:15:28;2.22;;;1.20;;
49223;SDS011;35050;51.316;5.994;2023-04-03T10:18:00;2.28;;;1.58;;
49223;SDS011;35050;51.316;5.994;2023-04-03T10:28:20;1.75;;;1.08;;
49223;SDS011;35050;51.316;5.994;2023-04-03T10:30:58;2.75;;;1.00;;
49223;SDS011;35050;51.316;5.994;2023-04-03T10:36:46;1.90;;;1.02;;
49223;SDS011;35050;51.316;5.994;2023-04-03T10:39:39;2.13;;;1.27;;
49223;SDS011;35050;51.316;5.994;2023-04-03T10:42:25;2.08;;;0.82;;
49223;SDS011;35050;51.316;5.994;2023-04-03T10:50:58;2.10;;;1.27;;
49223;SDS011;35050;51.316;5.994;2023-04-03T10:56:37;3.20;;;1.55;;
49223;SDS011;35050;51.316;5.994;2023-04-03T11:01:48;3.00;;;1.40;;
49223;SDS011;35050;51.316;5.994;2023-04-03T11:04:19;2.28;;;0.95;;
49223;SDS011;35050;51.316;5.994;2023-04-03T11:12:10;1.92;;;0.95;;
49223;SDS011;35050;51.316;5.994;2023-04-03T11:14:37;1.10;;;0.70;;
49223;SDS011;35050;51.316;5.994;2023-04-03T11:19:35;2.20;;;0.80;;
49223;SDS011;35050;51.316;5.994;2023-04-03T11:27:38;1.10;;;0.90;;
49223;SDS011;35050;51.316;5.994;2023-04-03T11:35:48;1.88;;;1.48;;
49223;SDS011;35050;51.316;5.994;2023-04-03T11:38:22;3.63;;;1.08;;
49223;SDS011;35050;51.316;5.994;2023-04-03T11:40:51;2.22;;;1.00;;
49223;SDS011;35050;51.316;5.994;2023-04-03T11:46:06;2.90;;;1.40;;
49223;SDS011;35050;51.316;5.994;2023-04-03T11:53:36;3.05;;;1.30;;
49223;SDS011;35050;51.316;5.994;2023-04-03T12:04:14;1.70;;;0.90;;
49223;SDS011;35050;51.316;5.994;2023-04-03T12:11:59;1.48;;;0.98;;
49223;SDS011;35050;51.316;5.994;2023-04-03T12:14:27;2.15;;;1.15;;
49223;SDS011;35050;51.316;5.994;2023-04-03T12:16:54;2.90;;;1.10;;
49223;SDS011;35050;51.316;5.994;2023-04-03T12:19:38;2.45;;;1.33;;
49223;SDS011;35050;51.316;5.994;2023-04-03T12:22:11;2.45;;;1.10;;
49223;SDS011;35050;51.316;5.994;2023-04-03T12:24:44;2.97;;;1.20;;
49223;SDS011;35050;51.316;5.994;2023-04-03T12:27:23;1.63;;;1.00;;
49223;SDS011;35050;51.316;5.994;2023-04-03T12:32:26;2.55;;;1.00;;
49223;SDS011;35050;51.316;5.994;2023-04-03T12:46:48;3.03;;;1.15;;
49223;SDS011;35050;51.316;5.994;2023-04-03T12:51:55;1.63;;;1.02;;
49223;SDS011;35050;51.316;5.994;2023-04-03T12:59:58;2.20;;;0.98;;
49223;SDS011;35050;51.316;5.994;2023-04-03T13:02:28;2.97;;;1.30;;
49223;SDS011;35050;51.316;5.994;2023-04-03T13:04:56;2.83;;;1.10;;
49223;SDS011;35050;51.316;5.994;2023-04-03T13:07:29;7.20;;;1.48;;
49223;SDS011;35050;51.316;5.994;2023-04-03T13:10:19;1.83;;;0.90;;
49223;SDS011;35050;51.316;5.994;2023-04-03T13:12:51;3.33;;;1.02;;
49223;SDS011;35050;51.316;5.994;2023-04-03T13:15:23;1.83;;;1.10;;
49223;SDS011;35050;51.316;5.994;2023-04-03T13:18:04;1.90;;;0.80;;
49223;SDS011;35050;51.316;5.994;2023-04-03T13:20:31;2.08;;;1.10;;
49223;SDS011;35050;51.316;5.994;2023-04-03T13:23:04;2.10;;;1.40;;
49223;SDS011;35050;51.316;5.994;2023-04-03T13:25:33;3.55;;;1.45;;
49223;SDS011;35050;51.316;5.994;2023-04-03T13:28:02;1.70;;;1.02;;
49223;SDS011;35050;51.316;5.994;2023-04-03T13:30:30;2.55;;;1.30;;
49223;SDS011;35050;51.316;5.994;2023-04-03T13:33:03;1.60;;;1.30;;
49223;SDS011;35050;51.316;5.994;2023-04-03T13:38:06;2.83;;;1.30;;
49223;SDS011;35050;51.316;5.994;2023-04-03T13:40:49;2.47;;;1.33;;
49223;SDS011;35050;51.316;5.994;2023-04-03T13:43:19;4.40;;;1.60;;
49223;SDS011;35050;51.316;5.994;2023-04-03T13:46:00;2.55;;;1.23;;
49223;SDS011;35050;51.316;5.994;2023-04-03T13:48:37;2.60;;;1.20;;
49223;SDS011;35050;51.316;5.994;2023-04-03T13:53:41;4.57;;;1.70;;
49223;SDS011;35050;51.316;5.994;2023-04-03T13:56:09;2.40;;;1.42;;
49223;SDS011;35050;51.316;5.994;2023-04-03T13:58:57;2.00;;;1.40;;
49223;SDS011;35050;51.316;5.994;2023-04-03T14:01:23;1.88;;;1.30;;
49223;SDS011;35050;51.316;5.994;2023-04-03T14:03:57;2.15;;;1.33;;
49223;SDS011;35050;51.316;5.994;2023-04-03T14:06:26;3.17;;;1.20;;
49223;SDS011;35050;51.316;5.994;2023-04-03T14:08:52;2.42;;;1.15;;
49223;SDS011;35050;51.316;5.994;2023-04-03T14:11:22;2.97;;;1.13;;
49223;SDS011;35050;51.316;5.994;2023-04-03T14:13:53;2.28;;;1.20;;
49223;SDS011;35050;51.316;5.994;2023-04-03T14:16:22;1.65;;;1.05;;
49223;SDS011;35050;51.316;5.994;2023-04-03T14:18:50;3.15;;;1.40;;
49223;SDS011;35050;51.316;5.994;2023-04-03T14:21:17;1.98;;;1.10;;
49223;SDS011;35050;51.316;5.994;2023-04-03T14:23:44;1.75;;;1.30;;
49223;SDS011;35050;51.316;5.994;2023-04-03T14:26:11;2.88;;;1.80;;
49223;SDS011;35050;51.316;5.994;2023-04-03T14:28:43;2.27;;;1.00;;
49223;SDS011;35050;51.316;5.994;2023-04-03T14:31:10;2.17;;;1.13;;
49223;SDS011;35050;51.316;5.994;2023-04-03T14:33:37;1.42;;;1.08;;
49223;SDS011;35050;51.316;5.994;2023-04-03T14:36:37;1.50;;;0.90;;
49223;SDS011;35050;51.316;5.994;2023-04-03T14:38:56;3.47;;;1.20;;
49223;SDS011;35050;51.316;5.994;2023-04-03T14:41:23;2.28;;;1.02;;
49223;SDS011;35050;51.316;5.994;2023-04-03T14:43:51;3.63;;;1.20;;
49223;SDS011;35050;51.316;5.994;2023-04-03T14:46:18;1.88;;;1.00;;
49223;SDS011;35050;51.316;5.994;2023-04-03T14:48:56;1.73;;;1.10;;
49223;SDS011;35050;51.316;5.994;2023-04-03T14:51:22;3.85;;;1.40;;
49223;SDS011;35050;51.316;5.994;2023-04-03T14:53:49;1.95;;;1.00;;
49223;SDS011;35050;51.316;5.994;2023-04-03T14:56:23;3.60;;;1.10;;
49223;SDS011;35050;51.316;5.994;2023-04-03T14:58:55;1.70;;;0.90;;
49223;SDS011;35050;51.316;5.994;2023-04-03T15:01:26;2.20;;;1.10;;
49223;SDS011;35050;51.316;5.994;2023-04-03T15:03:53;1.63;;;0.80;;
49223;SDS011;35050;51.316;5.994;2023-04-03T15:06:19;3.17;;;1.00;;
49223;SDS011;35050;51.316;5.994;2023-04-03T15:08:45;1.70;;;0.80;;
49223;SDS011;35050;51.316;5.994;2023-04-03T15:11:12;1.80;;;1.15;;
49223;SDS011;35050;51.316;5.994;2023-04-03T15:13:38;3.05;;;1.13;;
49223;SDS011;35050;51.316;5.994;2023-04-03T15:16:05;3.50;;;1.20;;
49223;SDS011;35050;51.316;5.994;2023-04-03T15:18:37;2.13;;;1.23;;
49223;SDS011;35050;51.316;5.994;2023-04-03T15:21:04;2.80;;;1.20;;
49223;SDS011;35050;51.316;5.994;2023-04-03T15:23:30;2.20;;;1.35;;
49223;SDS011;35050;51.316;5.994;2023-04-03T15:25:56;2.13;;;1.23;;
49223;SDS011;35050;51.316;5.994;2023-04-03T15:28:27;3.13;;;1.27;;
49223;SDS011;35050;51.316;5.994;2023-04-03T15:30:54;2.80;;;1.10;;
49223;SDS011;35050;51.316;5.994;2023-04-03T15:33:20;3.70;;;1.67;;
49223;SDS011;35050;51.316;5.994;2023-04-03T15:35:46;2.13;;;1.60;;
49223;SDS011;35050;51.316;5.994;2023-04-03T15:38:12;3.17;;;1.50;;
49223;SDS011;35050;51.316;5.994;2023-04-03T15:40:38;3.17;;;1.27;;
49223;SDS011;35050;51.316;5.994;2023-04-03T15:43:05;3.58;;;1.52;;
49223;SDS011;35050;51.316;5.994;2023-04-03T15:45:31;4.43;;;1.42;;
49223;SDS011;35050;51.316;5.994;2023-04-03T15:47:59;1.88;;;1.20;;
49223;SDS011;35050;51.316;5.994;2023-04-03T15:50:25;2.70;;;1.42;;
49223;SDS011;35050;51.316;5.994;2023-04-03T15:52:51;3.85;;;1.38;;
49223;SDS011;35050;51.316;5.994;2023-04-03T15:55:24;1.98;;;1.02;;
49223;SDS011;35050;51.316;5.994;2023-04-03T15:57:51;1.70;;;0.95;;
49223;SDS011;35050;51.316;5.994;2023-04-03T16:00:17;3.38;;;1.20;;
49223;SDS011;35050;51.316;5.994;2023-04-03T16:02:44;1.83;;;1.10;;
49223;SDS011;35050;51.316;5.994;2023-04-03T16:05:12;3.95;;;1.40;;
49223;SDS011;35050;51.316;5.994;2023-04-03T16:07:40;3.83;;;1.00;;
49223;SDS011;35050;51.316;5.994;2023-04-03T16:10:07;2.83;;;1.00;;
49223;SDS011;35050;51.316;5.994;2023-04-03T16:12:34;2.90;;;1.10;;
49223;SDS011;35050;51.316;5.994;2023-04-03T16:15:00;2.05;;;1.30;;
49223;SDS011;35050;51.316;5.994;2023-04-03T16:17:26;2.88;;;1.30;;
49223;SDS011;35050;51.316;5.994;2023-04-03T16:19:53;2.50;;;1.55;;
49223;SDS011;35050;51.316;5.994;2023-04-03T16:22:20;2.53;;;1.27;;
49223;SDS011;35050;51.316;5.994;2023-04-03T16:24:46;2.72;;;1.00;;
49223;SDS011;35050;51.316;5.994;2023-04-03T16:27:12;2.28;;;1.13;;
49223;SDS011;35050;51.316;5.994;2023-04-03T16:29:38;2.10;;;1.10;;
49223;SDS011;35050;51.316;5.994;2023-04-03T16:32:03;6.65;;;1.42;;
49223;SDS011;35050;51.316;5.994;2023-04-03T16:34:29;1.60;;;0.93;;
49223;SDS011;35050;51.316;5.994;2023-04-03T16:36:57;1.75;;;1.00;;
49223;SDS011;35050;51.316;5.994;2023-04-03T16:39:22;1.88;;;1.05;;
49223;SDS011;35050;51.316;5.994;2023-04-03T16:41:48;2.53;;;1.08;;
49223;SDS011;35050;51.316;5.994;2023-04-03T16:44:14;1.52;;;1.00;;
49223;SDS011;35050;51.316;5.994;2023-04-03T16:46:39;2.45;;;1.20;;
49223;SDS011;35050;51.316;5.994;2023-04-03T16:49:05;3.47;;;0.90;;
49223;SDS011;35050;51.316;5.994;2023-04-03T16:51:31;1.63;;;0.93;;
49223;SDS011;35050;51.316;5.994;2023-04-03T16:53:57;2.13;;;1.17;;
49223;SDS011;35050;51.316;5.994;2023-04-03T16:56:23;2.60;;;1.52;;